Time;durP1;ratioP1;P1;durP2;ratioP2;P2;SDS_P1;SDS_P2;PMS_P1;PMS_P2;Temp;Humidity;BMP_temperature;BMP_pressure;BME280_temperature;BME280_humidity;BME280_pressure;Samples;Min_cycle;Max_cycle;Signal;HPM_P1;HPM_P2
2023/09/04 00:02:04;;;;;;;1.83;1.73;;;15.70;99.90;;;;;;6257750;22;20454;-87
2023/09/04 00:04:32;;;;;;;1.70;1.60;;;15.80;99.90;;;;;;6288509;22;20469;-90
2023/09/04 00:06:59;;;;;;;0.50;0.50;;;15.80;99.90;;;;;;6291456;22;20424;-88
2023/09/04 00:09:28;;;;;;;0.50;0.50;;;15.70;99.90;;;;;;6313455;22;20419;-89
2023/09/04 00:11:55;;;;;;;0.83;0.83;;;15.70;99.90;;;;;;6282273;22;20394;-88
2023/09/04 00:14:30;;;;;;;0.90;0.90;;;15.60;99.90;;;;;;6285877;22;20839;-87
2023/09/04 00:17:00;;;;;;;0.73;0.73;;;15.50;99.90;;;;;;6283632;22;20458;-85
2023/09/04 00:22:02;;;;;;;0.70;0.70;;;15.40;99.90;;;;;;6182109;22;20436;31
2023/09/04 00:27:19;;;;;;;0.80;0.80;;;15.40;99.90;;;;;;6212336;22;20435;-88
2023/09/04 00:29:48;;;;;;;1.47;1.47;;;15.40;99.90;;;;;;6312915;22;20390;-88
2023/09/04 00:34:55;;;;;;;0.77;0.77;;;15.30;99.90;;;;;;6229773;22;20745;-91
2023/09/04 01:17:47;;;;;;;0.50;0.50;;;15.00;99.90;;;;;;6193790;22;20533;-91
2023/09/04 01:20:30;;;;;;;;;;;;;;;;;;;;;
2023/09/04 01:23:04;;;;;;;2.23;2.13;;;15.00;99.90;;;;;;6285768;22;20440;-88
2023/09/04 01:28:41;;;;;;;0.60;0.60;;;14.80;99.90;;;;;;6294865;22;20514;-90
2023/09/04 01:31:29;;;;;;;0.90;0.90;;;14.70;99.90;;;;;;6260712;22;21753;-88
2023/09/04 01:34:11;;;;;;;0.60;0.60;;;14.60;99.90;;;;;;6264241;22;20450;-90
2023/09/04 01:36:52;;;;;;;;;;;;;;;;;;;;;
2023/09/04 01:39:23;;;;;;;0.80;0.80;;;14.50;99.90;;;;;;6301143;22;20390;-89
2023/09/04 01:42:03;;;;;;;0.50;0.50;;;14.20;99.90;;;;;;6300596;22;20427;-88
2023/09/04 01:44:44;;;;;;;1.60;1.50;;;14.30;99.90;;;;;;6301140;22;20377;-89
2023/09/04 01:47:14;;;;;;;3.33;1.90;;;14.10;99.90;;;;;;6327097;22;20377;-86
2023/09/04 01:49:54;;;;;;;0.60;0.60;;;14.00;99.90;;;;;;6288404;22;20446;-89
2023/09/04 01:52:28;;;;;;;1.23;1.23;;;13.90;99.90;;;;;;6285707;22;20407;-89
2023/09/04 01:55:00;;;;;;;0.50;0.50;;;13.90;99.90;;;;;;6283385;22;20431;-87
2023/09/04 01:57:28;;;;;;;0.50;0.50;;;13.80;99.90;;;;;;6307752;22;20383;-88
2023/09/04 02:00:16;;;;;;;0.57;0.57;;;13.90;99.90;;;;;;6281842;22;20390;-89
2023/09/04 02:02:52;;;;;;;1.67;1.57;;;13.80;99.90;;;;;;6288401;22;20410;-87
2023/09/04 02:05:19;;;;;;;1.37;1.30;;;13.80;99.90;;;;;;6285121;22;20396;-90
2023/09/04 02:07:52;;;;;;;1.67;1.57;;;13.80;99.90;;;;;;6285281;22;20392;-89
2023/09/04 02:10:22;;;;;;;1.47;1.17;;;13.70;99.90;;;;;;6314601;22;20384;-91
2023/09/04 02:12:50;;;;;;;0.70;0.70;;;13.70;99.90;;;;;;6286246;22;20410;-90
2023/09/04 02:15:20;;;;;;;0.60;0.60;;;13.50;99.90;;;;;;6298867;22;20462;-88
2023/09/04 02:20:39;;;;;;;;;;;;;;;;;;;;;
2023/09/04 02:23:08;;;;;;;1.17;1.07;;;13.60;99.90;;;;;;6266955;22;20574;-89
2023/09/04 02:25:35;;;;;;;0.67;0.67;;;13.60;99.90;;;;;;6265086;22;20455;-86
2023/09/04 02:28:08;;;;;;;0.70;0.63;;;13.60;99.90;;;;;;6266796;22;20448;-90
2023/09/04 02:30:42;;;;;;;0.50;0.50;;;13.60;99.90;;;;;;6246147;22;20531;-89
2023/09/04 02:33:15;;;;;;;1.83;1.70;;;13.50;99.90;;;;;;6293977;22;20420;-89
2023/09/04 02:36:07;;;;;;;1.03;1.03;;;13.60;99.90;;;;;;6261589;22;20475;-88
2023/09/04 02:38:37;;;;;;;1.40;1.30;;;13.50;99.90;;;;;;6264222;22;20412;-87
2023/09/04 02:41:04;;;;;;;1.03;1.03;;;13.50;99.90;;;;;;6267221;22;20432;-88
2023/09/04 02:43:34;;;;;;;0.60;0.60;;;13.60;99.90;;;;;;6318743;22;20427;-88
2023/09/04 02:46:13;;;;;;;1.10;1.10;;;13.50;99.90;;;;;;6299220;22;20373;-89
2023/09/04 02:48:55;;;;;;;0.60;0.60;;;13.40;99.90;;;;;;6319219;22;20425;-87
2023/09/04 02:51:35;;;;;;;1.57;1.57;;;13.30;99.90;;;;;;6317547;22;20452;-88
2023/09/04 02:54:04;;;;;;;1.00;0.97;;;13.30;99.90;;;;;;6293582;22;20684;-88
2023/09/04 02:56:31;;;;;;;1.17;1.07;;;13.20;99.90;;;;;;6288250;22;20404;-90
2023/09/04 02:58:59;;;;;;;1.53;1.43;;;13.20;99.90;;;;;;6310872;22;20762;-90
2023/09/04 03:01:35;;;;;;;0.40;0.40;;;13.30;99.90;;;;;;6311143;22;20584;-89
2023/09/04 03:04:05;;;;;;;1.13;1.13;;;13.20;99.90;;;;;;6284492;22;20451;-88
2023/09/04 03:06:34;;;;;;;0.97;0.97;;;13.20;99.90;;;;;;6311126;22;20453;-91
2023/09/04 03:09:04;;;;;;;1.63;1.53;;;13.20;99.90;;;;;;6309566;22;20584;-87
2023/09/04 03:11:46;;;;;;;1.50;1.40;;;13.20;99.90;;;;;;6285649;22;20503;-88
2023/09/04 03:14:19;;;;;;;0.95;0.90;;;13.30;99.90;;;;;;6309750;22;20189;-90
2023/09/04 03:16:49;;;;;;;1.47;1.37;;;13.50;99.90;;;;;;6320854;22;20178;-90
2023/09/04 03:19:20;;;;;;;0.63;0.63;;;13.50;99.90;;;;;;6321012;22;20414;-89
2023/09/04 03:21:48;;;;;;;0.98;0.98;;;13.40;99.90;;;;;;6290344;22;20187;-90
2023/09/04 03:24:20;;;;;;;0.93;0.93;;;13.40;99.90;;;;;;6318299;22;20185;-89
2023/09/04 03:26:48;;;;;;;0.90;0.90;;;13.50;99.90;;;;;;6288474;22;20440;-91
2023/09/04 03:29:15;;;;;;;1.07;1.07;;;13.60;99.90;;;;;;6286998;22;20396;-90
2023/09/04 03:31:56;;;;;;;1.90;1.80;;;13.60;99.90;;;;;;6283194;22;20404;-88
2023/09/04 03:34:37;;;;;;;0.60;0.60;;;13.60;99.90;;;;;;6308033;22;20406;-85
2023/09/04 03:37:13;;;;;;;0.83;0.83;;;13.90;99.90;;;;;;6287059;22;20363;-91
2023/09/04 03:39:41;;;;;;;1.43;1.33;;;13.90;99.90;;;;;;6306505;22;20469;-90
2023/09/04 03:42:08;;;;;;;1.13;0.73;;;14.00;99.90;;;;;;6308893;22;20509;-87
2023/09/04 03:44:37;;;;;;;2.17;2.00;;;13.90;99.90;;;;;;6316148;22;20491;-91
2023/09/04 03:47:09;;;;;;;0.67;0.67;;;13.70;99.90;;;;;;6287532;22;20388;-90
2023/09/04 03:49:41;;;;;;;0.50;0.50;;;13.80;99.90;;;;;;6236707;22;21367;-89
2023/09/04 03:52:08;;;;;;;6.43;2.33;;;13.90;99.90;;;;;;6315957;22;20163;-88
2023/09/04 03:54:39;;;;;;;4.53;3.33;;;13.80;99.90;;;;;;6286196;22;20372;-87
2023/09/04 03:57:13;;;;;;;0.83;0.83;;;13.80;99.90;;;;;;6288680;22;20463;-85
2023/09/04 03:59:57;;;;;;;2.07;1.87;;;13.90;99.90;;;;;;6299784;22;20426;-85
2023/09/04 04:02:27;;;;;;;2.30;2.20;;;13.80;99.90;;;;;;6295384;22;20964;-89
2023/09/04 04:04:58;;;;;;;0.40;0.40;;;13.90;99.90;;;;;;6284742;22;20376;-86
2023/09/04 04:07:28;;;;;;;0.50;0.50;;;13.90;99.90;;;;;;6308192;22;20461;-88
2023/09/04 04:10:07;;;;;;;0.50;0.50;;;14.00;99.90;;;;;;6283249;22;20401;-86
2023/09/04 04:12:37;;;;;;;1.37;1.33;;;14.10;99.90;;;;;;6283661;22;20376;-83
2023/09/04 04:17:42;;;;;;;1.13;1.07;;;14.20;99.90;;;;;;6279390;22;20573;-89
2023/09/04 04:20:12;;;;;;;0.70;0.70;;;14.20;99.90;;;;;;6307379;22;20408;-86
2023/09/04 04:22:40;;;;;;;3.10;1.03;;;14.00;99.90;;;;;;6284290;22;20692;-89
2023/09/04 04:25:09;;;;;;;2.87;1.37;;;14.20;99.90;;;;;;6283132;22;20731;-86
2023/09/04 04:27:38;;;;;;;1.97;1.87;;;14.30;99.90;;;;;;6283244;22;20419;-88
2023/09/04 04:30:09;;;;;;;0.77;0.77;;;14.30;99.90;;;;;;6285193;22;20433;-87
2023/09/04 04:32:38;;;;;;;1.77;1.67;;;14.30;99.90;;;;;;6286036;22;20408;-86
2023/09/04 04:35:07;;;;;;;1.30;1.30;;;14.30;99.90;;;;;;6283302;22;20442;-87
2023/09/04 04:37:34;;;;;;;1.33;1.33;;;14.40;99.90;;;;;;6308712;22;20396;-88
2023/09/04 04:40:07;;;;;;;1.23;1.10;;;14.40;99.90;;;;;;6308279;22;20393;-83
2023/09/04 04:42:34;;;;;;;1.33;1.33;;;14.40;99.90;;;;;;6285754;22;20399;-91
2023/09/04 04:45:03;;;;;;;2.13;2.03;;;14.30;99.90;;;;;;6285104;22;20455;-87
2023/09/04 04:47:33;;;;;;;1.43;1.33;;;14.40;99.90;;;;;;6309399;22;20487;-82
2023/09/04 04:50:05;;;;;;;1.37;1.33;;;14.40;99.90;;;;;;6291195;22;20392;-85
2023/09/04 04:55:14;;;;;;;0.97;0.97;;;14.30;99.90;;;;;;6296417;22;20434;-86
2023/09/04 04:58:02;;;;;;;0.90;0.90;;;14.40;99.90;;;;;;6210012;23;20417;-84
2023/09/04 05:00:39;;;;;;;;;;;;;;;;;;;;;
2023/09/04 05:03:18;;;;;;;1.43;1.37;;;14.30;99.90;;;;;;6285023;22;20437;-84
2023/09/04 05:05:48;;;;;;;1.33;1.33;;;14.50;99.90;;;;;;6293577;22;20383;-85
2023/09/04 05:08:15;;;;;;;1.60;1.60;;;14.50;99.90;;;;;;6290151;22;20378;-82
2023/09/04 05:10:45;;;;;;;1.17;1.07;;;14.40;99.90;;;;;;6285690;22;20396;-87
2023/09/04 05:13:19;;;;;;;0.50;0.50;;;14.50;99.90;;;;;;6280618;22;20461;-85
2023/09/04 05:15:46;;;;;;;2.10;2.00;;;14.80;99.90;;;;;;6280645;22;20418;-88
2023/09/04 05:18:15;;;;;;;0.90;0.90;;;14.70;99.90;;;;;;6282474;22;20506;-86
2023/09/04 05:20:42;;;;;;;1.13;1.13;;;14.70;99.90;;;;;;6283212;22;20494;-86
2023/09/04 05:23:11;;;;;;;0.77;0.77;;;14.90;99.90;;;;;;6282672;22;20438;-86
2023/09/04 05:25:47;;;;;;;1.07;1.07;;;14.80;99.90;;;;;;6288616;22;20392;-80
2023/09/04 05:28:17;;;;;;;3.37;2.27;;;15.00;99.90;;;;;;6290145;22;20395;-84
2023/09/04 05:30:45;;;;;;;2.53;1.80;;;15.10;99.90;;;;;;6293239;22;20395;-85
2023/09/04 05:33:13;;;;;;;0.77;0.77;;;15.20;99.90;;;;;;6301763;22;20414;-84
2023/09/04 05:35:43;;;;;;;0.70;0.70;;;15.40;99.90;;;;;;6285863;22;20456;-86
2023/09/04 05:38:11;;;;;;;1.00;0.93;;;15.40;99.90;;;;;;6305052;22;20399;-81
2023/09/04 05:40:38;;;;;;;0.67;0.67;;;15.40;99.90;;;;;;6282384;22;20401;-86
2023/09/04 05:43:06;;;;;;;0.50;0.50;;;15.50;99.90;;;;;;6282192;22;20399;-88
2023/09/04 05:45:33;;;;;;;2.07;1.97;;;15.60;99.90;;;;;;6281213;22;20596;-86
2023/09/04 05:48:11;;;;;;;;;;;;;;;;;;;;;
2023/09/04 05:50:46;;;;;;;1.53;1.43;;;15.70;99.90;;;;;;6281608;22;20423;-87
2023/09/04 05:53:19;;;;;;;0.80;0.80;;;16.10;99.90;;;;;;6281652;22;20347;-87
2023/09/04 05:56:02;;;;;;;2.40;1.30;;;16.30;99.90;;;;;;6280269;22;20460;-85
2023/09/04 05:58:32;;;;;;;2.00;1.90;;;16.30;99.90;;;;;;6281184;22;20433;-86
2023/09/04 06:01:00;;;;;;;0.70;0.70;;;16.40;99.90;;;;;;6289806;22;20422;-87
2023/09/04 06:03:27;;;;;;;0.70;0.70;;;16.40;99.90;;;;;;6291686;22;20434;-87
2023/09/04 06:05:54;;;;;;;1.17;1.10;;;17.00;99.90;;;;;;6285382;22;20409;-82
2023/09/04 06:08:22;;;;;;;1.00;1.00;;;17.00;99.90;;;;;;6288587;22;20388;-84
2023/09/04 06:10:54;;;;;;;1.27;1.27;;;17.10;99.90;;;;;;6288038;22;20407;-88
2023/09/04 06:13:21;;;;;;;0.60;0.60;;;17.20;99.90;;;;;;6283313;22;20439;-84
2023/09/04 06:15:51;;;;;;;1.33;1.23;;;17.50;99.90;;;;;;6290834;22;20522;-82
2023/09/04 06:18:19;;;;;;;0.60;0.60;;;17.50;99.90;;;;;;6286720;22;20787;-84
2023/09/04 06:20:47;;;;;;;0.80;0.80;;;17.70;99.90;;;;;;6283796;22;20445;-85
2023/09/04 06:23:16;;;;;;;2.20;2.10;;;17.80;99.90;;;;;;6283758;22;20389;-87
2023/09/04 06:25:46;;;;;;;0.73;0.73;;;18.00;99.90;;;;;;6280853;22;20387;-86
2023/09/04 06:28:14;;;;;;;1.23;1.13;;;18.10;99.90;;;;;;6281917;22;20396;-85
2023/09/04 06:30:41;;;;;;;0.60;0.60;;;18.30;99.90;;;;;;6284371;22;20764;-87
2023/09/04 06:33:09;;;;;;;0.70;0.70;;;18.70;99.90;;;;;;6285008;22;20461;-86
2023/09/04 06:35:37;;;;;;;0.93;0.93;;;19.20;99.90;;;;;;6306255;22;20431;-88
2023/09/04 06:38:06;;;;;;;0.70;0.70;;;19.40;99.90;;;;;;6281159;22;20391;-84
2023/09/04 06:40:36;;;;;;;0.77;0.77;;;19.70;99.90;;;;;;6280833;22;20375;-87
2023/09/04 06:43:09;;;;;;;0.80;0.80;;;20.00;99.90;;;;;;6282973;22;20412;-84
2023/09/04 06:45:37;;;;;;;0.80;0.80;;;20.40;99.90;;;;;;6283758;22;20372;-79
2023/09/04 06:48:08;;;;;;;0.90;0.90;;;20.60;99.90;;;;;;6281238;22;20377;-81
2023/09/04 06:50:37;;;;;;;0.73;0.73;;;20.70;99.90;;;;;;6283077;22;20376;-84
2023/09/04 06:53:04;;;;;;;1.00;1.00;;;20.40;99.90;;;;;;6281402;22;20728;-84
2023/09/04 06:55:32;;;;;;;2.90;2.70;;;20.40;99.90;;;;;;6280379;22;20412;-83
2023/09/04 06:58:00;;;;;;;0.70;0.70;;;20.70;99.90;;;;;;6282112;22;20415;-83
2023/09/04 07:00:27;;;;;;;0.80;0.80;;;20.90;99.90;;;;;;6283285;22;20367;-88
2023/09/04 07:02:54;;;;;;;1.10;1.10;;;21.10;99.90;;;;;;6309014;22;20454;-81
2023/09/04 07:05:21;;;;;;;1.73;1.63;;;21.60;99.90;;;;;;6284229;22;20636;-86
2023/09/04 07:07:52;;;;;;;0.87;0.87;;;21.70;99.90;;;;;;6281627;22;20599;-86
2023/09/04 07:10:26;;;;;;;1.10;1.00;;;22.30;99.90;;;;;;6291489;22;20380;-80
2023/09/04 07:12:54;;;;;;;1.53;1.43;;;22.50;99.90;;;;;;6293781;22;20418;-81
2023/09/04 07:15:24;;;;;;;0.80;0.80;;;22.40;99.90;;;;;;6283957;22;20941;-85
2023/09/04 07:17:51;;;;;;;1.63;1.53;;;21.80;99.90;;;;;;6283487;22;20563;-84
2023/09/04 07:20:19;;;;;;;0.80;0.80;;;21.00;99.90;;;;;;6283461;22;20372;-84
2023/09/04 07:22:46;;;;;;;0.70;0.70;;;20.60;99.90;;;;;;6307497;22;20413;-88
2023/09/04 07:25:13;;;;;;;0.97;0.93;;;20.70;99.90;;;;;;6281946;22;20392;-82
2023/09/04 07:27:41;;;;;;;0.77;0.77;;;20.50;99.90;;;;;;6282283;22;20406;-82
2023/09/04 07:30:08;;;;;;;1.17;1.17;;;20.50;99.90;;;;;;6282597;22;20395;-87
2023/09/04 07:32:38;;;;;;;10.90;1.57;;;20.50;99.90;;;;;;6284113;22;20366;-82
2023/09/04 07:35:06;;;;;;;1.00;1.00;;;20.70;99.90;;;;;;6282603;22;20411;-81
2023/09/04 07:37:33;;;;;;;0.90;0.90;;;20.70;99.90;;;;;;6282235;22;20483;-80
2023/09/04 07:40:00;;;;;;;0.80;0.80;;;20.70;99.90;;;;;;6283734;22;20523;-81
2023/09/04 07:42:27;;;;;;;1.30;1.20;;;21.00;99.90;;;;;;6284499;22;20418;-86
2023/09/04 07:44:54;;;;;;;22.87;1.57;;;21.00;99.90;;;;;;6282974;22;20403;-82
2023/09/04 07:47:22;;;;;;;0.80;0.80;;;21.00;99.90;;;;;;6284510;22;20425;-83
2023/09/04 07:49:51;;;;;;;0.93;0.93;;;20.70;99.90;;;;;;6288216;22;20561;-84
2023/09/04 07:52:18;;;;;;;0.80;0.80;;;20.90;99.90;;;;;;6282418;22;20428;-84
2023/09/04 07:54:50;;;;;;;0.90;0.90;;;21.30;99.90;;;;;;6293487;22;20709;-86
2023/09/04 07:57:17;;;;;;;0.90;0.90;;;22.10;99.90;;;;;;6310596;22;20439;-83
2023/09/04 07:59:46;;;;;;;0.90;0.90;;;22.60;99.90;;;;;;6283825;22;20411;-86
2023/09/04 08:02:16;;;;;;;2.40;2.20;;;22.80;99.90;;;;;;6285982;22;20369;-84
2023/09/04 08:04:43;;;;;;;1.20;1.20;;;22.80;99.90;;;;;;6284642;22;20414;-84
2023/09/04 08:07:12;;;;;;;1.63;1.60;;;23.10;99.90;;;;;;6286817;22;20437;-84
2023/09/04 08:09:40;;;;;;;1.00;1.00;;;22.70;99.90;;;;;;6283638;22;20717;-86
2023/09/04 08:12:06;;;;;;;1.00;1.00;;;22.20;99.90;;;;;;6282953;22;20450;-78
2023/09/04 08:14:36;;;;;;;1.33;1.23;;;21.90;99.90;;;;;;6282914;22;20435;-83
2023/09/04 08:17:03;;;;;;;1.10;1.10;;;22.10;99.90;;;;;;6285226;22;20492;-84
2023/09/04 08:19:32;;;;;;;1.10;1.10;;;22.70;99.90;;;;;;6283211;22;20439;-87
2023/09/04 08:22:01;;;;;;;0.90;0.90;;;23.30;99.90;;;;;;6283837;22;20398;-85
2023/09/04 08:24:28;;;;;;;1.10;1.10;;;23.60;99.90;;;;;;6308461;22;20378;-79
2023/09/04 08:26:55;;;;;;;1.60;1.50;;;22.90;99.90;;;;;;6286008;22;20402;-83
2023/09/04 08:29:22;;;;;;;1.00;1.00;;;22.60;99.90;;;;;;6287436;22;20398;-87
2023/09/04 08:31:50;;;;;;;0.80;0.80;;;22.30;99.90;;;;;;6284698;22;20594;-81
2023/09/04 08:34:17;;;;;;;1.43;1.33;;;22.40;99.90;;;;;;6283334;22;20380;-84
2023/09/04 08:36:47;;;;;;;1.00;1.00;;;22.70;99.90;;;;;;6284167;22;20417;-86
2023/09/04 08:39:14;;;;;;;1.00;1.00;;;22.80;99.90;;;;;;6280729;22;20377;-84
2023/09/04 08:41:44;;;;;;;1.00;1.00;;;22.40;99.90;;;;;;6283767;22;20378;-83
2023/09/04 08:44:11;;;;;;;1.10;1.10;;;22.10;99.90;;;;;;6284863;22;20392;-81
2023/09/04 08:46:42;;;;;;;1.10;1.10;;;21.70;99.90;;;;;;6286718;22;20377;-88
2023/09/04 08:49:09;;;;;;;2.00;1.90;;;21.70;99.90;;;;;;6282534;22;20373;-82
2023/09/04 08:51:36;;;;;;;0.90;0.90;;;21.60;99.90;;;;;;6283072;22;20366;-81
2023/09/04 08:54:04;;;;;;;0.90;0.90;;;21.90;99.90;;;;;;6283431;22;20370;-81
2023/09/04 08:56:32;;;;;;;1.20;1.13;;;22.40;99.90;;;;;;6286122;22;20459;-81
2023/09/04 08:59:00;;;;;;;1.10;1.10;;;21.60;99.90;;;;;;6288625;22;20405;-83
2023/09/04 09:01:33;;;;;;;1.00;1.00;;;22.00;99.90;;;;;;6291256;22;20712;-84
2023/09/04 09:04:02;;;;;;;0.80;0.80;;;22.30;99.90;;;;;;6288170;22;20362;-83
2023/09/04 09:06:30;;;;;;;1.40;1.30;;;22.20;99.90;;;;;;6292335;22;20379;-86
2023/09/04 09:08:58;;;;;;;1.30;1.30;;;22.20;99.90;;;;;;6290306;22;20421;-82
2023/09/04 09:11:26;;;;;;;1.10;1.10;;;22.90;99.90;;;;;;6290904;22;20427;-86
2023/09/04 09:13:53;;;;;;;1.00;1.00;;;23.10;99.90;;;;;;6313203;22;20393;-83
2023/09/04 09:16:21;;;;;;;1.20;1.20;;;23.60;99.90;;;;;;6290090;22;20428;-83
2023/09/04 09:18:49;;;;;;;1.63;1.53;;;23.60;99.90;;;;;;6287825;22;20442;-83
2023/09/04 09:21:32;;;;;;;0.90;0.90;;;23.90;99.50;;;;;;6289033;22;20388;-82
2023/09/04 09:24:19;;;;;;;1.00;1.00;;;24.00;99.90;;;;;;6282140;22;20382;-83
2023/09/04 09:26:49;;;;;;;0.90;0.90;;;24.00;99.10;;;;;;6281745;22;20490;-80
2023/09/04 09:29:17;;;;;;;1.00;1.00;;;23.70;99.10;;;;;;6281778;22;20368;-85
2023/09/04 09:31:45;;;;;;;8.60;1.27;;;23.80;99.00;;;;;;6282169;22;20599;-86
2023/09/04 09:34:13;;;;;;;1.10;1.10;;;24.10;98.80;;;;;;6304821;22;20444;-84
2023/09/04 09:36:41;;;;;;;0.90;0.90;;;23.90;98.60;;;;;;6280697;22;20411;-85
2023/09/04 09:39:08;;;;;;;0.90;0.90;;;23.80;97.10;;;;;;6279742;22;20367;-81
2023/09/04 09:41:36;;;;;;;1.20;1.20;;;23.10;98.60;;;;;;6279779;22;20405;-83
2023/09/04 09:44:04;;;;;;;1.00;1.00;;;23.30;99.30;;;;;;6279887;22;20782;-81
2023/09/04 09:46:37;;;;;;;1.10;1.10;;;23.50;99.00;;;;;;6278345;22;20405;-81
2023/09/04 09:49:06;;;;;;;2.37;2.27;;;23.70;98.20;;;;;;6278982;22;20409;-79
2023/09/04 09:51:37;;;;;;;1.67;1.57;;;23.90;98.10;;;;;;6279224;22;20855;-82
2023/09/04 09:54:08;;;;;;;1.60;1.50;;;23.40;97.50;;;;;;6279985;22;20556;-80
2023/09/04 09:56:37;;;;;;;0.90;0.90;;;23.30;98.60;;;;;;6287369;22;20475;-81
2023/09/04 09:59:06;;;;;;;1.00;1.00;;;23.40;97.00;;;;;;6278402;22;20433;-81
2023/09/04 10:01:36;;;;;;;1.33;1.33;;;23.20;97.30;;;;;;6277158;22;20456;-82
2023/09/04 10:04:05;;;;;;;1.00;1.00;;;23.30;96.90;;;;;;6278088;22;20374;-80
2023/09/04 10:06:34;;;;;;;1.00;1.00;;;23.30;97.90;;;;;;6278603;22;20405;-83
2023/09/04 10:09:07;;;;;;;1.50;1.40;;;23.50;96.90;;;;;;6278535;22;20444;-81
2023/09/04 10:11:39;;;;;;;0.90;0.90;;;23.40;97.40;;;;;;6278684;22;20348;-80
2023/09/04 10:14:19;;;;;;;1.00;1.00;;;23.50;98.70;;;;;;6278531;22;20435;-79
2023/09/04 10:16:53;;;;;;;1.00;1.00;;;22.80;98.90;;;;;;6292563;22;20725;-81
2023/09/04 10:19:25;;;;;;;1.73;1.63;;;22.90;99.20;;;;;;6280010;22;20461;-82
2023/09/04 10:21:59;;;;;;;1.10;1.10;;;23.00;98.40;;;;;;6278461;22;20413;-82
2023/09/04 10:24:44;;;;;;;1.00;1.00;;;23.10;97.70;;;;;;6280844;22;20429;-81
2023/09/04 10:27:13;;;;;;;0.90;0.90;;;23.10;96.80;;;;;;6277560;22;20365;-84
2023/09/04 10:29:51;;;;;;;1.27;1.27;;;23.50;96.80;;;;;;6278592;22;20365;-80
2023/09/04 10:32:18;;;;;;;0.90;0.90;;;23.50;97.80;;;;;;6277965;22;20420;-81
2023/09/04 10:34:46;;;;;;;1.10;1.10;;;23.60;97.80;;;;;;6277440;22;20528;-83
2023/09/04 10:37:13;;;;;;;0.90;0.90;;;23.40;97.60;;;;;;6277374;22;20425;-82
2023/09/04 10:39:41;;;;;;;1.10;1.10;;;23.20;97.00;;;;;;6279332;22;20395;-82
2023/09/04 10:42:11;;;;;;;0.90;0.90;;;23.20;96.80;;;;;;6280308;22;20371;-83
2023/09/04 10:44:51;;;;;;;0.97;0.97;;;23.00;96.40;;;;;;6280167;22;20377;-79
2023/09/04 10:47:20;;;;;;;0.90;0.90;;;22.80;96.50;;;;;;6278516;22;20349;-80
2023/09/04 10:49:48;;;;;;;1.30;1.30;;;22.80;97.30;;;;;;6283537;22;20369;-85
2023/09/04 10:52:16;;;;;;;0.90;0.90;;;23.10;97.60;;;;;;6284410;22;20429;-82
2023/09/04 10:54:43;;;;;;;0.90;0.90;;;23.30;97.20;;;;;;6287229;22;20388;-81
2023/09/04 10:57:15;;;;;;;0.90;0.90;;;23.20;97.50;;;;;;6282142;22;20429;-82
2023/09/04 10:59:55;;;;;;;2.53;2.33;;;23.10;97.80;;;;;;6281943;22;20610;-88
2023/09/04 11:02:35;;;;;;;1.80;1.70;;;22.80;98.50;;;;;;6278973;22;20377;-87
2023/09/04 11:05:03;;;;;;;0.90;0.90;;;22.20;98.00;;;;;;6276314;22;20357;-81
2023/09/04 11:07:36;;;;;;;1.03;1.03;;;22.40;98.10;;;;;;6277556;22;20417;-81
2023/09/04 11:10:32;;;;;;;0.90;0.90;;;22.50;96.90;;;;;;6284143;22;20347;-81
2023/09/04 11:12:59;;;;;;;1.37;1.30;;;22.80;96.90;;;;;;6279327;22;20415;-80
2023/09/04 11:15:26;;;;;;;0.80;0.80;;;22.90;96.30;;;;;;6278306;22;20549;-82
2023/09/04 11:17:54;;;;;;;0.90;0.90;;;23.00;96.70;;;;;;6277833;22;20519;-82
2023/09/04 11:20:26;;;;;;;0.90;0.90;;;23.00;96.00;;;;;;6275882;22;20391;-82
2023/09/04 11:22:55;;;;;;;0.83;0.83;;;23.10;96.20;;;;;;6277551;22;20406;-80
2023/09/04 11:25:23;;;;;;;0.87;0.87;;;23.20;95.60;;;;;;6276048;22;20703;-78
2023/09/04 11:27:50;;;;;;;0.90;0.90;;;23.40;95.40;;;;;;6278435;22;20727;-81
2023/09/04 11:30:18;;;;;;;0.80;0.80;;;23.40;95.30;;;;;;6276921;22;20743;-82
2023/09/04 11:32:45;;;;;;;1.00;1.00;;;23.30;95.50;;;;;;6277043;22;20366;-83
2023/09/04 11:35:13;;;;;;;0.97;0.97;;;23.00;95.20;;;;;;6279093;22;20547;-82
2023/09/04 11:37:42;;;;;;;0.90;0.90;;;22.90;96.70;;;;;;6279562;22;20440;-83
2023/09/04 11:40:10;;;;;;;1.00;1.00;;;23.10;96.80;;;;;;6278408;22;20379;-82
2023/09/04 11:42:39;;;;;;;1.20;1.20;;;23.10;97.30;;;;;;6280590;22;20497;-81
2023/09/04 11:45:08;;;;;;;1.53;1.43;;;23.10;96.90;;;;;;6282281;22;20351;-78
2023/09/04 11:47:38;;;;;;;1.10;1.10;;;23.00;96.70;;;;;;6281748;22;20400;-87
2023/09/04 11:50:15;;;;;;;0.83;0.83;;;23.20;95.80;;;;;;6277415;22;20421;-82
2023/09/04 11:52:42;;;;;;;1.13;1.13;;;23.40;95.80;;;;;;6280668;22;20376;-85
2023/09/04 11:55:11;;;;;;;1.00;1.00;;;23.70;95.70;;;;;;6281146;22;20376;-82
2023/09/04 11:57:38;;;;;;;1.00;1.00;;;23.80;94.70;;;;;;6279306;22;20414;-82
2023/09/04 12:00:06;;;;;;;0.80;0.80;;;23.90;95.40;;;;;;6281818;22;20736;-82
2023/09/04 12:02:33;;;;;;;0.90;0.90;;;23.60;94.90;;;;;;6282459;22;20507;-80
2023/09/04 12:05:05;;;;;;;1.83;1.73;;;23.20;96.20;;;;;;6281628;22;20377;-80
2023/09/04 12:07:32;;;;;;;0.97;0.97;;;22.90;97.20;;;;;;6256918;22;20349;-83
2023/09/04 12:09:59;;;;;;;0.80;0.80;;;22.80;97.30;;;;;;6281250;22;20627;-83
2023/09/04 12:12:26;;;;;;;1.53;1.20;;;23.10;96.70;;;;;;6280200;22;20399;-83
2023/09/04 12:14:53;;;;;;;1.30;1.30;;;23.50;96.40;;;;;;6280341;22;20373;-83
2023/09/04 12:17:20;;;;;;;0.90;0.90;;;23.70;95.30;;;;;;6304006;22;20413;-82
2023/09/04 12:19:51;;;;;;;10.47;2.60;;;23.50;94.50;;;;;;6281621;22;20406;-83
2023/09/04 12:22:20;;;;;;;0.90;0.90;;;23.50;94.70;;;;;;6285699;22;20376;-82
2023/09/04 12:25:32;;;;;;;1.00;1.00;;;23.60;95.10;;;;;;6283332;22;20464;-83
2023/09/04 12:27:59;;;;;;;1.00;1.00;;;23.60;94.30;;;;;;6167511;22;20698;-83
2023/09/04 12:30:27;;;;;;;1.37;1.37;;;23.60;95.10;;;;;;6281242;22;20457;-82
2023/09/04 12:32:58;;;;;;;0.90;0.90;;;23.60;94.80;;;;;;6290149;22;20390;-81
2023/09/04 12:35:31;;;;;;;1.10;1.10;;;23.70;94.80;;;;;;6292304;22;20546;-85
2023/09/04 12:38:00;;;;;;;1.57;1.47;;;23.90;94.40;;;;;;6293526;22;20632;-83
2023/09/04 12:40:27;;;;;;;1.20;1.20;;;24.00;92.90;;;;;;6280604;22;20381;-82
2023/09/04 12:42:57;;;;;;;0.90;0.90;;;24.10;91.90;;;;;;6280552;22;20403;-81
2023/09/04 12:45:25;;;;;;;1.00;1.00;;;24.30;92.40;;;;;;6280452;22;20399;-84
2023/09/04 12:47:52;;;;;;;0.90;0.90;;;24.40;92.40;;;;;;6281562;22;20432;-84
2023/09/04 12:50:19;;;;;;;1.10;1.10;;;24.50;91.20;;;;;;6284896;22;20373;-82
2023/09/04 12:52:48;;;;;;;0.90;0.90;;;24.40;91.70;;;;;;6284254;22;20427;-82
2023/09/04 12:55:15;;;;;;;0.90;0.90;;;23.90;92.40;;;;;;6283815;22;20409;-84
2023/09/04 12:57:45;;;;;;;1.10;1.10;;;23.80;92.80;;;;;;6284081;22;20418;-81
2023/09/04 13:00:15;;;;;;;0.90;0.90;;;23.70;92.80;;;;;;6288216;22;20380;-80
2023/09/04 13:02:43;;;;;;;1.20;1.20;;;23.80;92.70;;;;;;6286345;22;20436;-80
2023/09/04 13:05:11;;;;;;;0.90;0.90;;;23.70;92.30;;;;;;6283507;22;20469;-87
2023/09/04 13:07:38;;;;;;;0.90;0.90;;;24.20;92.20;;;;;;6281904;22;20391;-81
2023/09/04 13:10:06;;;;;;;1.10;1.10;;;24.20;91.80;;;;;;6284628;22;20355;-82
2023/09/04 13:12:33;;;;;;;1.20;1.20;;;24.10;91.00;;;;;;6288755;22;20427;-82
2023/09/04 13:15:00;;;;;;;1.93;1.37;;;23.90;91.50;;;;;;6288757;22;20374;-77
2023/09/04 13:17:27;;;;;;;1.00;1.00;;;24.00;92.20;;;;;;6280576;22;20645;-82
2023/09/04 13:19:57;;;;;;;0.90;0.90;;;23.80;92.50;;;;;;6282566;22;20371;-82
2023/09/04 13:22:27;;;;;;;1.03;1.03;;;23.00;92.30;;;;;;6279791;22;20354;-81
2023/09/04 13:24:54;;;;;;;0.90;0.90;;;24.00;92.70;;;;;;6281572;22;20778;-83
2023/09/04 13:27:21;;;;;;;0.90;0.90;;;24.20;92.50;;;;;;6283195;22;20404;-80
2023/09/04 13:29:48;;;;;;;1.40;1.40;;;24.30;92.20;;;;;;6291235;22;20431;-81
2023/09/04 13:32:15;;;;;;;1.10;1.10;;;24.20;90.10;;;;;;6287370;22;20403;-86
2023/09/04 13:34:42;;;;;;;1.10;1.10;;;24.30;91.50;;;;;;6293278;22;20382;-82
2023/09/04 13:37:10;;;;;;;1.33;1.33;;;24.10;92.10;;;;;;6295634;22;20478;-85
2023/09/04 13:39:38;;;;;;;0.90;0.90;;;23.80;92.30;;;;;;6282320;22;20396;-83
2023/09/04 13:42:05;;;;;;;1.23;1.23;;;23.90;92.60;;;;;;6292693;22;20399;-82
2023/09/04 13:44:32;;;;;;;1.13;1.13;;;24.00;91.40;;;;;;6290363;22;20402;-80
2023/09/04 13:47:01;;;;;;;0.90;0.90;;;25.70;92.00;;;;;;6308996;22;20426;-84
2023/09/04 13:49:31;;;;;;;1.00;1.00;;;24.10;91.90;;;;;;6283866;22;20591;-84
2023/09/04 13:51:58;;;;;;;1.00;1.00;;;24.80;92.40;;;;;;6289939;22;20450;-83
2023/09/04 13:54:25;;;;;;;1.17;1.17;;;23.30;92.20;;;;;;6286181;22;20606;-85
2023/09/04 13:56:53;;;;;;;0.90;0.90;;;23.30;92.00;;;;;;6284641;22;20404;-82
2023/09/04 13:59:21;;;;;;;1.00;1.00;;;24.40;92.40;;;;;;6285593;22;20367;-84
2023/09/04 14:01:49;;;;;;;0.90;0.90;;;23.70;92.40;;;;;;6310248;22;20369;-82
2023/09/04 14:04:17;;;;;;;0.90;0.90;;;23.80;92.40;;;;;;6288347;22;20614;-81
2023/09/04 14:06:44;;;;;;;1.47;1.37;;;24.60;92.40;;;;;;6294527;22;20406;-82
2023/09/04 14:09:11;;;;;;;2.67;2.47;;;25.00;90.90;;;;;;6294671;22;20407;-87